createdAt,value
2018-10-03T05:57:49.911Z,3.40
2018-10-03T05:58:45.004Z,5.60
2018-10-03T05:59:45.074Z,5.50
2018-10-03T06:00:44.788Z,6.20
2018-10-03T06:01:44.851Z,5.80
2018-10-03T06:02:44.737Z,5.50
2018-10-03T06:03:44.842Z,6.00
2018-10-03T06:04:44.703Z,5.30
2018-10-03T06:05:44.658Z,5.60
2018-10-03T06:06:44.652Z,5.70
2018-10-03T06:07:44.737Z,5.10
2018-10-03T06:08:44.666Z,6.40
2018-10-03T06:09:44.674Z,7.40
2018-10-03T06:10:56.739Z,6.00
2018-10-03T06:11:44.744Z,5.80
2018-10-03T06:12:44.892Z,5.60
2018-10-03T06:13:45.534Z,5.70
2018-10-03T06:14:44.751Z,5.90
2018-10-03T06:17:07.035Z,6.00
2018-10-03T06:18:06.974Z,5.20
2018-10-03T06:19:07.022Z,5.90
2018-10-03T06:20:06.917Z,5.90
2018-10-03T06:21:06.987Z,5.20
2018-10-03T06:22:06.847Z,5.20
2018-10-03T06:23:06.918Z,6.40
2018-10-03T06:24:06.800Z,5.30
2018-10-03T06:25:07.321Z,6.10
2018-10-03T06:26:06.749Z,6.10
2018-10-03T06:27:07.235Z,5.70
2018-10-03T06:28:06.713Z,5.60
2018-10-03T06:31:08.149Z,6.30
2018-10-03T06:32:08.005Z,5.90
2018-10-03T06:33:08.041Z,6.30
2018-10-03T06:34:08.015Z,6.30
2018-10-03T06:35:07.991Z,5.60
2018-10-03T06:37:25.572Z,4.70
2018-10-03T06:58:09.618Z,5.20
2018-10-03T07:22:26.465Z,4.60
2018-10-03T07:26:09.219Z,5.80
2018-10-03T07:27:08.959Z,5.10
2018-10-03T07:28:08.976Z,5.40
2018-10-03T07:29:08.989Z,4.70
2018-10-03T07:30:20.023Z,5.00
2018-10-03T07:31:08.814Z,4.70
2018-10-03T07:33:48.361Z,4.20
2018-10-03T07:34:48.051Z,5.20
2018-10-03T07:35:47.932Z,4.90
2018-10-03T07:36:54.393Z,4.70
2018-10-03T07:37:47.368Z,5.10
2018-10-03T07:38:49.193Z,5.80
2018-10-03T07:39:52.412Z,5.00
2018-10-03T07:40:47.335Z,5.40
2018-10-03T07:41:47.292Z,4.80
2018-10-03T07:42:47.305Z,4.70
2018-10-03T07:43:47.278Z,5.40
2018-10-03T07:44:47.352Z,5.10
2018-10-03T07:45:47.520Z,5.00
2018-10-03T07:48:10.444Z,4.50
2018-10-03T07:49:10.020Z,4.50
2018-10-03T07:50:09.845Z,4.70
2018-10-03T07:53:09.399Z,5.60
2018-10-03T07:54:09.219Z,4.60
2018-10-03T07:55:09.308Z,4.90
2018-10-03T07:56:09.013Z,4.60
2018-10-03T07:57:08.996Z,4.50
2018-10-03T07:58:09.396Z,4.60
2018-10-03T07:59:09.223Z,4.70
2018-10-03T08:10:33.990Z,3.70
2018-10-03T08:56:18.708Z,3.90
2018-10-03T09:19:07.315Z,4.30
2018-10-03T09:20:06.886Z,4.60
2018-10-03T09:21:07.269Z,3.50
2018-10-03T09:22:06.981Z,3.80
2018-10-03T09:23:06.965Z,3.80
2018-10-03T09:24:06.895Z,3.50
2018-10-03T09:25:06.881Z,3.90
2018-10-03T09:26:07.334Z,3.50
2018-10-03T09:28:59.540Z,3.00
2018-10-03T09:29:59.327Z,3.60
2018-10-03T09:30:59.229Z,3.80
2018-10-03T09:31:59.375Z,3.80
2018-10-03T09:32:59.260Z,4.30
2018-10-03T09:33:59.332Z,3.70
2018-10-03T09:34:59.121Z,4.00
2018-10-03T09:35:59.120Z,3.60
2018-10-03T09:36:59.109Z,3.60
2018-10-03T09:37:59.182Z,3.30
2018-10-03T09:38:59.104Z,3.80
2018-10-03T09:39:59.884Z,3.60
2018-10-03T09:40:59.136Z,4.20
2018-10-03T09:41:59.192Z,3.90
2018-10-03T09:42:59.069Z,3.30
2018-10-03T09:43:59.044Z,3.50
2018-10-03T09:44:59.193Z,3.20
2018-10-03T09:45:59.002Z,3.50
2018-10-03T09:46:58.993Z,3.50
2018-10-03T09:47:59.305Z,3.40
2018-10-03T09:48:59.006Z,3.90
2018-10-03T09:49:59.049Z,4.30
2018-10-03T09:50:58.993Z,3.00
2018-10-03T09:51:58.994Z,3.50
2018-10-03T09:52:59.162Z,3.40
2018-10-03T09:53:58.929Z,3.80
2018-10-03T09:54:58.901Z,3.40
2018-10-03T09:55:58.943Z,3.40
2018-10-03T09:56:58.884Z,3.30
2018-10-03T09:57:58.883Z,3.20
2018-10-03T09:58:58.859Z,3.20
2018-10-03T09:59:59.063Z,3.10
2018-10-03T10:00:58.998Z,3.30
2018-10-03T10:01:58.827Z,3.00
2018-10-03T10:02:58.811Z,3.30
2018-10-03T10:03:58.857Z,3.80
2018-10-03T10:04:58.864Z,2.90
2018-10-03T10:05:58.848Z,3.10
2018-10-03T10:06:58.785Z,3.00
2018-10-03T10:07:58.752Z,3.70
2018-10-03T10:08:58.833Z,3.70
2018-10-03T10:09:58.737Z,4.20
2018-10-03T10:10:59.447Z,3.40
2018-10-03T10:11:58.749Z,3.30
2018-10-03T10:12:58.733Z,3.40
2018-10-03T10:13:58.851Z,3.10
2018-10-03T10:14:58.722Z,3.10
2018-10-03T10:15:58.672Z,3.00
2018-10-03T10:16:58.657Z,3.30
2018-10-03T10:17:58.648Z,3.50
2018-10-03T10:18:58.696Z,4.20
2018-10-03T10:19:58.640Z,3.20
2018-10-03T10:20:58.744Z,3.10
2018-10-03T10:21:59.336Z,3.40
2018-10-03T10:22:58.599Z,3.00
2018-10-03T10:26:38.334Z,2.70
2018-10-03T10:29:24.362Z,3.50
2018-10-03T10:34:07.866Z,3.50
2018-10-03T10:35:07.361Z,3.20
2018-10-03T10:36:07.803Z,3.10
2018-10-03T10:37:07.333Z,3.30
2018-10-03T10:38:07.166Z,3.10
2018-10-03T10:39:07.095Z,3.60
2018-10-03T10:40:07.143Z,3.40
2018-10-03T10:41:07.138Z,2.90
2018-10-03T10:47:36.516Z,2.00
2018-10-03T10:51:44.005Z,3.30
2018-10-03T10:52:43.511Z,3.30
2018-10-03T10:53:43.317Z,3.30
2018-10-03T10:54:43.417Z,3.60
2018-10-03T10:55:45.820Z,3.30
2018-10-03T10:56:43.291Z,3.20
2018-10-03T10:57:43.246Z,3.30
2018-10-03T10:58:43.249Z,3.00
2018-10-03T10:59:43.219Z,3.40
2018-10-03T11:00:43.171Z,3.30
2018-10-03T11:01:43.233Z,3.50
2018-10-03T11:02:43.239Z,3.70
2018-10-03T11:03:43.215Z,3.40
2018-10-03T11:07:45.282Z,3.30
2018-10-03T11:11:09.051Z,2.70
2018-10-03T11:18:57.565Z,2.50
2018-10-03T11:19:59.186Z,3.60
2018-10-03T11:22:41.621Z,4.20
2018-10-03T11:26:55.210Z,4.60
2018-10-03T11:54:58.851Z,2.80
2018-10-03T11:55:59.167Z,2.70
2018-10-03T11:57:11.542Z,3.00
2018-10-03T11:57:58.650Z,2.50
2018-10-03T11:58:58.579Z,2.50
2018-10-03T11:59:58.614Z,2.70
2018-10-03T12:00:59.733Z,2.50
2018-10-03T12:01:58.502Z,2.50
2018-10-03T12:02:58.555Z,2.60
2018-10-03T12:03:58.724Z,2.60
2018-10-03T12:04:58.439Z,2.80
2018-10-03T12:05:58.411Z,4.50
2018-10-03T12:14:25.749Z,1.70
2018-10-03T12:17:02.637Z,2.90
2018-10-03T12:23:16.241Z,2.50
2018-10-03T12:24:13.141Z,2.30
2018-10-03T12:27:54.015Z,1.80
2018-10-03T12:28:53.609Z,2.00
2018-10-03T12:29:53.642Z,2.30
2018-10-03T12:30:53.635Z,2.30
2018-10-03T13:15:37.706Z,2.50
2018-10-03T13:16:37.285Z,2.30
2018-10-03T13:37:44.518Z,4.30
2018-10-03T13:38:44.191Z,2.40
2018-10-03T13:39:44.129Z,2.60
2018-10-03T13:40:44.133Z,2.30
2018-10-03T13:41:44.002Z,2.00
2018-10-03T13:42:44.063Z,2.00
2018-10-03T13:43:44.003Z,2.50
2018-10-03T13:44:46.894Z,2.60
2018-10-03T13:45:43.965Z,2.40
2018-10-03T13:46:44.019Z,2.20
2018-10-03T13:47:43.959Z,2.30
2018-10-03T13:48:43.930Z,2.40
2018-10-03T13:49:43.987Z,2.60
2018-10-03T13:50:44.067Z,2.50
2018-10-03T13:51:45.141Z,2.50
2018-10-03T13:52:43.911Z,3.10
2018-10-03T13:53:44.832Z,2.30
2018-10-03T13:54:43.941Z,2.60
2018-10-03T13:55:43.858Z,2.90
2018-10-03T13:59:26.859Z,2.30
2018-10-03T14:00:26.414Z,2.90
2018-10-03T14:01:27.587Z,2.40
2018-10-03T14:02:26.450Z,2.60
2018-10-03T14:03:26.382Z,2.50
2018-10-03T14:04:26.409Z,3.00
2018-10-03T14:05:26.368Z,2.80
2018-10-03T14:06:26.405Z,2.60
2018-10-03T14:07:26.327Z,2.50
2018-10-03T14:08:26.309Z,2.60
2018-10-03T14:09:26.324Z,2.70
2018-10-03T14:10:26.328Z,2.80
2018-10-03T14:11:26.275Z,2.40
2018-10-03T14:12:26.283Z,2.60
2018-10-03T14:13:26.266Z,2.80
2018-10-03T14:14:26.373Z,3.30
2018-10-03T14:19:27.222Z,3.70
2018-10-03T14:20:26.791Z,2.30
2018-10-03T14:21:26.831Z,2.60
2018-10-03T14:22:26.639Z,2.50
2018-10-03T14:23:26.684Z,2.70
2018-10-03T14:24:26.673Z,2.20
2018-10-03T14:25:26.706Z,2.30
2018-10-03T14:26:26.636Z,2.30
2018-10-03T14:27:26.639Z,2.50
2018-10-03T14:28:26.586Z,2.10
2018-10-03T14:29:26.763Z,2.30
2018-10-03T14:30:26.574Z,2.30
2018-10-03T14:31:26.542Z,2.30
2018-10-03T14:32:27.125Z,2.50
2018-10-03T14:33:26.657Z,2.60
2018-10-03T14:34:26.508Z,2.60
2018-10-03T14:35:26.543Z,2.20
2018-10-03T14:36:26.510Z,2.00
2018-10-03T14:37:26.523Z,2.40
2018-10-03T14:38:26.516Z,2.10
2018-10-03T14:39:26.457Z,2.40
2018-10-03T14:40:26.445Z,2.30
2018-10-03T14:41:26.441Z,2.10
2018-10-03T14:42:26.603Z,2.20
2018-10-03T14:43:26.633Z,2.40
2018-10-03T14:44:26.407Z,2.40
2018-10-03T14:45:26.675Z,2.40
2018-10-03T14:46:26.393Z,2.20
2018-10-03T14:47:26.521Z,2.40
2018-10-03T14:48:26.540Z,1.80
2018-10-03T14:54:58.688Z,1.60
2018-10-03T14:55:58.089Z,2.20
2018-10-03T14:58:59.812Z,1.60
2018-10-03T15:00:01.051Z,2.00
2018-10-03T15:03:09.350Z,2.90
2018-10-03T15:04:09.736Z,2.30
2018-10-03T15:05:08.842Z,2.40
2018-10-03T15:06:05.451Z,2.10
2018-10-03T15:07:05.244Z,2.20
2018-10-03T15:08:05.885Z,2.30
2018-10-03T15:09:05.238Z,2.10
2018-10-03T15:10:05.322Z,2.20
2018-10-03T15:15:14.245Z,2.20
2018-10-03T15:19:47.278Z,1.70
2018-10-03T15:20:46.555Z,2.50
2018-10-03T15:21:46.869Z,2.00
2018-10-03T15:22:48.383Z,2.10
2018-10-03T15:23:47.325Z,2.10
2018-10-03T15:24:46.320Z,2.40
2018-10-03T15:25:46.870Z,2.30
2018-10-03T15:26:46.572Z,3.50
2018-10-03T15:27:46.260Z,2.30
2018-10-03T15:30:16.505Z,2.00
2018-10-03T15:31:16.739Z,2.50
2018-10-03T15:32:17.159Z,2.60
2018-10-03T16:40:07.084Z,3.60
2018-10-03T16:55:45.146Z,1.90
2018-10-03T17:00:54.010Z,2.80
2018-10-03T17:09:33.791Z,2.50
2018-10-03T17:10:33.499Z,3.50
2018-10-03T17:11:33.403Z,3.40
2018-10-03T17:12:33.408Z,3.80
2018-10-03T17:13:33.268Z,4.10
2018-10-03T17:14:33.713Z,4.00
2018-10-03T17:15:33.234Z,3.90
2018-10-03T17:16:34.081Z,4.30
2018-10-03T17:17:33.153Z,4.50
2018-10-03T17:18:33.147Z,4.20
2018-10-03T17:19:33.121Z,4.00
2018-10-03T17:20:34.397Z,4.50
2018-10-03T17:21:33.224Z,3.30
2018-10-03T17:22:33.947Z,3.70
2018-10-03T17:23:33.187Z,3.80
2018-10-03T17:24:33.262Z,4.70
2018-10-03T17:25:33.074Z,4.20
2018-10-03T17:26:33.436Z,4.10
2018-10-03T17:27:33.032Z,4.60
2018-10-03T17:28:33.060Z,5.40
2018-10-03T17:29:33.006Z,4.70
2018-10-03T17:30:33.008Z,4.90
2018-10-03T17:31:33.008Z,4.10
2018-10-03T17:32:32.978Z,4.40
2018-10-03T17:33:33.019Z,4.50
2018-10-03T17:34:33.008Z,4.00
2018-10-03T17:35:32.933Z,4.20
2018-10-03T17:36:32.946Z,3.70
2018-10-03T17:37:33.041Z,3.80
2018-10-03T17:38:32.927Z,3.80
2018-10-03T17:39:33.042Z,4.40
2018-10-03T17:40:32.966Z,3.90
2018-10-03T17:41:32.906Z,3.50
2018-10-03T17:42:32.879Z,3.80
2018-10-03T17:43:32.875Z,4.00
2018-10-03T17:44:32.848Z,3.70
2018-10-03T17:45:32.849Z,3.80
2018-10-03T17:46:32.881Z,3.90
2018-10-03T17:47:32.863Z,3.70
2018-10-03T17:48:32.829Z,4.10
2018-10-03T17:49:32.803Z,5.00
2018-10-03T17:50:32.814Z,4.90
2018-10-03T17:51:32.766Z,4.90
2018-10-03T17:52:32.760Z,4.50
2018-10-03T17:53:32.836Z,5.90
2018-10-03T17:54:32.780Z,5.00
2018-10-03T17:55:32.728Z,4.20
2018-10-03T17:56:32.716Z,4.40
2018-10-03T17:57:32.715Z,4.50
2018-10-03T17:58:32.691Z,4.10
2018-10-03T17:59:32.716Z,4.30
2018-10-03T18:00:32.672Z,4.90
2018-10-03T18:01:32.807Z,4.40
2018-10-03T18:02:32.716Z,4.30
2018-10-03T18:03:32.650Z,4.60
2018-10-03T18:04:32.757Z,4.30
2018-10-03T18:05:32.620Z,4.20
2018-10-03T18:06:32.668Z,4.70
2018-10-03T18:07:32.623Z,4.40
2018-10-03T18:08:32.666Z,5.00
2018-10-03T18:09:32.627Z,4.10
2018-10-03T18:10:32.594Z,4.50
2018-10-03T18:11:32.560Z,4.30
2018-10-03T18:12:33.109Z,4.30
2018-10-03T18:13:32.643Z,4.40
2018-10-03T18:14:32.516Z,4.40
2018-10-03T18:15:32.508Z,4.40
2018-10-03T18:16:32.501Z,5.00
2018-10-03T18:17:32.734Z,5.00
2018-10-03T18:18:32.526Z,5.10
2018-10-03T18:19:32.498Z,5.80
2018-10-03T18:20:32.453Z,5.50
2018-10-03T18:21:32.464Z,5.30
2018-10-03T18:22:33.906Z,5.00
2018-10-03T18:23:32.423Z,5.60
2018-10-03T18:25:49.804Z,4.30
2018-10-03T18:26:49.300Z,5.40
2018-10-03T18:27:49.358Z,5.80
2018-10-03T18:28:49.203Z,5.80
2018-10-03T18:29:49.166Z,4.50
2018-10-03T18:30:49.183Z,4.90
2018-10-03T18:31:49.140Z,4.50
2018-10-03T18:32:49.123Z,4.50
2018-10-03T18:33:49.155Z,4.20
2018-10-03T18:34:49.164Z,4.20
2018-10-03T18:39:29.240Z,4.30
2018-10-03T18:40:28.820Z,4.30
2018-10-03T18:41:28.682Z,5.00
2018-10-03T18:42:28.775Z,4.70
2018-10-03T18:43:28.653Z,5.10
2018-10-03T18:44:28.611Z,5.00
2018-10-03T18:45:28.797Z,4.90
2018-10-03T18:46:28.603Z,5.50
2018-10-03T18:47:28.598Z,4.50
2018-10-03T18:48:28.572Z,5.30
2018-10-03T18:49:28.575Z,5.40
2018-10-03T18:50:28.672Z,5.20
2018-10-03T18:51:28.555Z,5.90
2018-10-03T18:52:28.870Z,5.60
2018-10-03T18:53:28.550Z,5.30
2018-10-03T18:54:29.430Z,5.00
2018-10-03T18:55:28.579Z,4.90
2018-10-03T18:56:28.481Z,4.70
2018-10-03T18:57:28.526Z,4.20
2018-10-03T18:58:28.458Z,5.10
2018-10-03T18:59:28.476Z,5.40
2018-10-03T19:00:28.489Z,5.00
2018-10-03T19:01:28.432Z,5.10
2018-10-03T19:02:28.435Z,5.30
2018-10-03T19:03:28.458Z,4.80
2018-10-03T19:04:28.396Z,5.10
2018-10-03T19:05:28.486Z,5.20
2018-10-03T19:06:28.372Z,4.90
2018-10-03T19:07:28.350Z,5.30
2018-10-03T19:08:28.359Z,5.50
2018-10-03T19:09:28.352Z,5.30
2018-10-03T19:10:28.337Z,5.10
2018-10-03T19:11:28.489Z,6.20
2018-10-03T19:12:28.382Z,5.60
2018-10-03T19:13:28.296Z,5.80
2018-10-03T19:14:28.291Z,5.30
2018-10-03T19:15:28.307Z,5.80
2018-10-03T19:16:28.341Z,5.80
2018-10-03T19:17:28.258Z,5.50
2018-10-03T19:18:28.262Z,5.00
2018-10-03T19:19:28.241Z,5.60
2018-10-03T19:20:28.275Z,5.80
2018-10-03T19:21:28.913Z,5.30
2018-10-03T19:22:28.255Z,5.50
2018-10-03T19:23:28.281Z,5.90
2018-10-03T19:24:28.376Z,5.70
2018-10-03T19:25:28.354Z,5.80
2018-10-03T19:26:28.169Z,5.30
2018-10-03T19:27:40.468Z,5.80
2018-10-03T19:28:28.496Z,5.80
2018-10-03T19:29:28.286Z,6.30
2018-10-03T19:30:28.338Z,7.30
2018-10-03T19:31:28.173Z,7.20
2018-10-03T19:32:28.103Z,7.70
2018-10-03T19:33:28.110Z,7.70
2018-10-03T19:34:28.166Z,8.10
2018-10-03T19:35:28.152Z,7.60
2018-10-03T19:36:28.049Z,6.80
2018-10-03T19:37:28.061Z,6.90
2018-10-03T19:38:28.050Z,7.80
2018-10-03T19:39:28.032Z,7.20
2018-10-03T19:40:27.993Z,8.60
2018-10-03T19:41:28.076Z,8.10
2018-10-03T19:42:28.016Z,9.80
2018-10-03T19:43:28.034Z,10.10
2018-10-03T19:44:28.002Z,8.70
2018-10-03T19:45:28.042Z,8.00
2018-10-03T19:46:27.940Z,6.70
2018-10-03T19:47:28.440Z,7.20
2018-10-03T19:48:28.064Z,7.00
2018-10-03T19:49:28.103Z,6.50
2018-10-03T19:50:27.899Z,12.60
2018-10-03T19:51:27.962Z,11.70
2018-10-03T19:52:27.891Z,10.70
2018-10-03T19:53:27.860Z,9.40
2018-10-03T19:54:27.871Z,6.80
2018-10-03T19:55:27.864Z,6.20
2018-10-03T19:56:27.895Z,5.60
2018-10-03T19:57:27.866Z,5.30
2018-10-03T19:58:27.798Z,5.50
2018-10-03T20:01:20.095Z,4.50
2018-10-03T20:02:19.027Z,5.00
2018-10-03T20:03:19.085Z,5.00
2018-10-03T20:04:18.892Z,5.10
2018-10-03T20:05:18.810Z,5.00
2018-10-03T20:06:18.716Z,5.40
2018-10-03T20:07:18.768Z,5.50
2018-10-03T20:08:18.738Z,5.70
2018-10-03T20:09:18.687Z,6.00
2018-10-03T20:10:18.820Z,5.40
2018-10-03T20:11:18.778Z,5.50
2018-10-03T20:12:19.313Z,5.40
2018-10-03T20:13:18.657Z,5.20
2018-10-03T20:14:18.783Z,6.00
2018-10-03T20:15:20.474Z,5.40
2018-10-03T20:23:38.788Z,4.90
2018-10-03T20:24:38.603Z,5.40
2018-10-03T20:25:38.268Z,4.90
2018-10-03T20:26:38.339Z,5.20
2018-10-03T20:27:38.160Z,4.80
2018-10-03T20:28:38.215Z,5.20
2018-10-03T20:29:38.260Z,4.90
2018-10-03T20:30:38.244Z,4.70
2018-10-03T20:31:38.181Z,4.50
2018-10-03T20:32:38.438Z,5.10
2018-10-03T20:33:38.256Z,5.00
2018-10-03T20:34:38.207Z,4.90
2018-10-03T20:35:38.248Z,5.30
2018-10-03T20:36:38.068Z,5.30
2018-10-03T20:37:38.066Z,4.90
2018-10-03T20:38:38.126Z,5.50
2018-10-03T20:39:38.168Z,4.80
2018-10-03T20:40:38.050Z,4.80
2018-10-03T20:41:38.177Z,4.90
2018-10-03T20:42:38.192Z,5.20
2018-10-03T20:43:38.093Z,5.50
2018-10-03T20:44:38.115Z,5.20
2018-10-03T20:45:37.965Z,5.50
2018-10-03T20:46:37.975Z,4.70
2018-10-03T20:47:37.949Z,5.50
2018-10-03T20:48:37.911Z,5.00
2018-10-03T20:49:38.001Z,5.30
2018-10-03T20:50:37.933Z,5.20
2018-10-03T20:51:37.949Z,5.10
2018-10-03T20:52:38.058Z,5.30
2018-10-03T20:53:37.993Z,5.40
2018-10-03T20:54:38.106Z,5.90
2018-10-03T20:55:37.935Z,5.70
2018-10-03T20:56:37.824Z,5.30
2018-10-03T20:57:37.855Z,5.20
2018-10-03T20:58:37.893Z,5.70
2018-10-03T20:59:37.852Z,5.50
2018-10-03T21:00:38.040Z,5.50
2018-10-03T21:01:38.862Z,5.70
2018-10-03T21:02:37.856Z,5.40
2018-10-03T21:03:37.793Z,6.20
2018-10-03T21:04:37.802Z,5.80
2018-10-03T21:05:37.788Z,5.70
2018-10-03T21:06:37.784Z,5.90
2018-10-03T21:07:37.797Z,7.30
2018-10-03T21:08:37.764Z,5.60
2018-10-03T21:09:37.738Z,6.50
2018-10-03T21:10:37.758Z,6.70
2018-10-03T21:11:37.669Z,6.10
2018-10-03T21:12:37.663Z,5.70
2018-10-03T21:13:37.778Z,6.00
2018-10-03T21:14:37.649Z,5.90
2018-10-03T21:15:37.684Z,5.70
2018-10-03T21:16:37.627Z,5.80
2018-10-03T21:17:37.628Z,6.40
2018-10-03T21:18:37.592Z,6.30
2018-10-03T21:19:37.655Z,5.70
2018-10-03T21:20:37.600Z,5.90
2018-10-03T21:21:37.602Z,6.00
2018-10-03T21:22:37.586Z,6.00
2018-10-03T21:23:37.529Z,6.60
2018-10-03T21:24:37.527Z,6.80
2018-10-03T21:25:37.568Z,6.20
2018-10-03T21:26:37.559Z,6.60
2018-10-03T21:27:37.506Z,6.70
2018-10-03T21:28:37.549Z,6.10
2018-10-03T21:29:37.472Z,6.10
2018-10-03T21:30:37.528Z,6.50
2018-10-03T21:31:37.457Z,6.50
2018-10-03T21:32:37.490Z,6.50
2018-10-03T21:33:37.425Z,6.50
2018-10-03T21:34:37.408Z,6.70
2018-10-03T21:35:37.467Z,6.60
2018-10-03T21:36:37.425Z,6.10
2018-10-03T21:37:37.400Z,6.70
2018-10-03T21:38:37.381Z,6.60
2018-10-03T21:39:37.406Z,6.30
2018-10-03T21:40:37.337Z,6.30
2018-10-03T21:41:37.328Z,6.60
2018-10-03T21:42:37.350Z,6.50
2018-10-03T21:43:37.387Z,7.10
2018-10-03T21:44:37.386Z,6.30
2018-10-03T21:45:37.285Z,6.30
2018-10-03T21:46:37.273Z,6.60
2018-10-03T21:47:37.292Z,6.20
2018-10-03T21:48:37.253Z,6.90
2018-10-03T21:49:37.269Z,6.60
2018-10-03T21:50:37.232Z,6.30
2018-10-03T21:51:37.243Z,7.60
2018-10-03T21:52:37.209Z,7.30
2018-10-03T21:53:37.218Z,6.40
2018-10-03T21:54:37.204Z,6.20
2018-10-03T21:55:37.175Z,6.70
2018-10-03T21:56:37.216Z,6.70
2018-10-03T21:57:37.152Z,7.20
2018-10-03T21:58:37.191Z,6.20
2018-10-03T21:59:37.213Z,7.20
2018-10-03T22:00:37.169Z,6.60
2018-10-03T22:01:37.111Z,6.20
2018-10-03T22:02:37.110Z,7.20
2018-10-03T22:03:37.093Z,6.90
2018-10-03T22:04:37.085Z,6.70
2018-10-03T22:05:37.134Z,6.40
2018-10-03T22:06:37.119Z,6.70
2018-10-03T22:07:37.070Z,6.40
2018-10-03T22:08:37.055Z,6.90
2018-10-03T22:09:37.089Z,6.90
2018-10-03T22:10:37.018Z,6.60
2018-10-03T22:11:37.062Z,7.30
2018-10-03T22:12:37.054Z,6.80
2018-10-03T22:13:36.993Z,7.20
2018-10-03T22:14:37.018Z,6.50
2018-10-03T22:15:36.961Z,6.60
2018-10-03T22:16:36.986Z,6.70
2018-10-03T22:17:36.967Z,7.00
2018-10-03T22:18:36.968Z,7.10
2018-10-03T22:19:36.921Z,7.00
2018-10-03T22:20:36.896Z,6.80
2018-10-03T22:21:36.894Z,6.70
2018-10-03T22:22:36.995Z,6.70
2018-10-03T22:23:36.866Z,6.50
2018-10-03T22:24:36.868Z,7.60
2018-10-03T22:25:36.860Z,7.40
2018-10-03T22:26:36.876Z,7.40
2018-10-03T22:27:36.824Z,7.20
2018-10-03T22:28:36.906Z,7.20
2018-10-03T22:29:36.822Z,6.50
2018-10-03T22:30:36.789Z,6.90
2018-10-03T22:31:36.793Z,6.90
2018-10-03T22:32:36.866Z,6.70
2018-10-03T22:33:36.772Z,6.70
2018-10-03T22:34:36.753Z,6.60
2018-10-03T22:35:36.813Z,6.60
2018-10-03T22:36:36.739Z,7.00
2018-10-03T22:37:36.772Z,7.10
2018-10-03T22:38:36.704Z,6.60
2018-10-03T22:39:36.705Z,7.20
2018-10-03T22:40:36.691Z,7.50
2018-10-03T22:41:36.676Z,6.50
2018-10-03T22:42:36.684Z,7.10
2018-10-03T22:43:36.649Z,6.60
2018-10-03T22:44:36.694Z,6.20
2018-10-03T22:45:36.652Z,6.40
2018-10-03T22:46:36.624Z,6.90
2018-10-03T22:47:36.605Z,6.60
2018-10-03T22:48:36.667Z,7.10
2018-10-03T22:49:36.584Z,6.70
2018-10-03T22:50:36.628Z,6.70
2018-10-03T22:51:36.569Z,6.70
2018-10-03T22:52:36.543Z,6.30
2018-10-03T22:53:36.600Z,6.50
2018-10-03T22:54:36.525Z,6.10
2018-10-03T22:55:36.547Z,6.50
2018-10-03T22:56:36.561Z,6.00
2018-10-03T22:57:36.485Z,6.10
2018-10-03T22:58:36.475Z,6.10
2018-10-03T22:59:36.501Z,6.00
2018-10-03T23:00:36.501Z,6.00
2018-10-03T23:01:36.463Z,6.30
2018-10-03T23:02:36.449Z,5.80
2018-10-03T23:03:36.419Z,5.80
2018-10-03T23:04:36.424Z,5.60
2018-10-03T23:05:36.394Z,6.50
2018-10-03T23:06:36.454Z,6.20
2018-10-03T23:07:36.382Z,6.80
2018-10-03T23:08:36.460Z,6.40
2018-10-03T23:09:36.381Z,5.60
2018-10-03T23:10:36.349Z,5.60
2018-10-03T23:11:36.376Z,5.90
2018-10-03T23:12:36.362Z,5.80
2018-10-03T23:13:36.343Z,6.10
2018-10-03T23:14:36.347Z,5.00
2018-10-03T23:15:36.292Z,5.80
2018-10-03T23:16:36.292Z,5.80
2018-10-03T23:17:36.315Z,6.10
2018-10-03T23:18:36.248Z,6.90
2018-10-03T23:19:36.272Z,6.10
2018-10-03T23:20:36.299Z,6.10
2018-10-03T23:21:36.213Z,6.30
2018-10-03T23:22:36.228Z,5.80
2018-10-03T23:23:36.237Z,6.00
2018-10-03T23:24:36.200Z,5.60
2018-10-03T23:25:36.192Z,5.80
2018-10-03T23:26:36.190Z,5.50
2018-10-03T23:27:36.193Z,5.80
2018-10-03T23:28:36.137Z,5.90
2018-10-03T23:29:36.160Z,5.50
2018-10-03T23:30:36.175Z,6.00
2018-10-03T23:31:36.233Z,6.40
2018-10-03T23:32:36.169Z,6.40
2018-10-03T23:33:36.123Z,5.60
2018-10-03T23:34:36.078Z,5.90
2018-10-03T23:35:36.103Z,5.30
2018-10-03T23:36:36.061Z,5.60
2018-10-03T23:37:36.060Z,5.90
2018-10-03T23:38:36.050Z,6.60
2018-10-03T23:39:36.019Z,5.60
2018-10-03T23:40:36.006Z,5.80
2018-10-03T23:41:36.030Z,5.90
2018-10-03T23:42:36.052Z,5.30
2018-10-03T23:43:36.030Z,5.40
2018-10-03T23:44:35.985Z,5.20
2018-10-03T23:45:35.991Z,5.30
2018-10-03T23:46:35.998Z,5.80
2018-10-03T23:47:35.982Z,5.30
2018-10-03T23:48:35.989Z,5.50
2018-10-03T23:49:35.940Z,6.10
2018-10-03T23:50:35.900Z,5.40
2018-10-03T23:51:35.894Z,6.40
2018-10-03T23:52:35.882Z,5.40
2018-10-03T23:53:35.895Z,5.50
2018-10-03T23:54:35.878Z,5.80
2018-10-03T23:55:35.835Z,5.70
2018-10-03T23:56:35.822Z,5.20
2018-10-03T23:57:35.808Z,5.80
2018-10-03T23:58:35.794Z,5.50
2018-10-03T23:59:35.810Z,5.30
